sensor_id;sensor_type;location;lat;lon;timestamp;temperature;humidity
6964;DHT22;3522;50.856;7.278;2022-08-02T00:01:04;16.80;99.90
6964;DHT22;3522;50.856;7.278;2022-08-02T00:03:31;16.80;99.90
6964;DHT22;3522;50.856;7.278;2022-08-02T00:05:59;16.70;99.90
6964;DHT22;3522;50.856;7.278;2022-08-02T00:08:25;16.70;99.90
6964;DHT22;3522;50.856;7.278;2022-08-02T00:10:52;16.70;99.90
6964;DHT22;3522;50.856;7.278;2022-08-02T00:13:19;16.70;99.90
6964;DHT22;3522;50.856;7.278;2022-08-02T00:15:45;16.70;99.90
6964;DHT22;3522;50.856;7.278;2022-08-02T00:18:12;16.70;99.90
6964;DHT22;3522;50.856;7.278;2022-08-02T00:20:39;16.70;99.90
6964;DHT22;3522;50.856;7.278;2022-08-02T00:23:06;16.70;99.90
6964;DHT22;3522;50.856;7.278;2022-08-02T00:25:33;16.60;99.90
6964;DHT22;3522;50.856;7.278;2022-08-02T00:28:00;16.60;99.90
6964;DHT22;3522;50.856;7.278;2022-08-02T00:30:26;16.60;99.90
6964;DHT22;3522;50.856;7.278;2022-08-02T00:32:53;16.50;99.90
6964;DHT22;3522;50.856;7.278;2022-08-02T00:35:19;16.50;99.90
6964;DHT22;3522;50.856;7.278;2022-08-02T00:37:46;16.50;99.90
6964;DHT22;3522;50.856;7.278;2022-08-02T00:40:14;16.50;99.90
6964;DHT22;3522;50.856;7.278;2022-08-02T00:42:40;16.50;99.90
6964;DHT22;3522;50.856;7.278;2022-08-02T00:45:08;16.50;99.90
6964;DHT22;3522;50.856;7.278;2022-08-02T00:47:35;16.40;99.90
6964;DHT22;3522;50.856;7.278;2022-08-02T00:50:02;16.40;99.90
6964;DHT22;3522;50.856;7.278;2022-08-02T00:52:29;16.40;99.90
6964;DHT22;3522;50.856;7.278;2022-08-02T00:54:55;16.40;99.90
6964;DHT22;3522;50.856;7.278;2022-08-02T00:57:23;16.40;99.90
6964;DHT22;3522;50.856;7.278;2022-08-02T00:59:50;16.40;99.90
6964;DHT22;3522;50.856;7.278;2022-08-02T01:02:16;16.40;99.90
6964;DHT22;3522;50.856;7.278;2022-08-02T01:04:43;16.40;99.90
6964;DHT22;3522;50.856;7.278;2022-08-02T01:07:09;16.40;99.90
6964;DHT22;3522;50.856;7.278;2022-08-02T01:09:36;16.40;99.90
6964;DHT22;3522;50.856;7.278;2022-08-02T01:12:03;16.40;99.90
6964;DHT22;3522;50.856;7.278;2022-08-02T01:14:30;16.30;99.90
6964;DHT22;3522;50.856;7.278;2022-08-02T01:16:59;16.30;99.90
6964;DHT22;3522;50.856;7.278;2022-08-02T01:19:30;16.30;99.90
6964;DHT22;3522;50.856;7.278;2022-08-02T01:22:03;16.30;99.90
6964;DHT22;3522;50.856;7.278;2022-08-02T01:24:43;16.40;99.90
6964;DHT22;3522;50.856;7.278;2022-08-02T01:27:16;16.40;99.90
6964;DHT22;3522;50.856;7.278;2022-08-02T01:29:48;16.40;99.90
6964;DHT22;3522;50.856;7.278;2022-08-02T01:32:17;16.40;99.90
6964;DHT22;3522;50.856;7.278;2022-08-02T01:34:45;16.30;99.90
6964;DHT22;3522;50.856;7.278;2022-08-02T01:37:17;16.40;99.90
6964;DHT22;3522;50.856;7.278;2022-08-02T01:39:45;16.40;99.90
6964;DHT22;3522;50.856;7.278;2022-08-02T01:42:12;16.40;99.90
6964;DHT22;3522;50.856;7.278;2022-08-02T01:44:40;16.40;99.90
6964;DHT22;3522;50.856;7.278;2022-08-02T01:47:13;16.40;99.90
6964;DHT22;3522;50.856;7.278;2022-08-02T01:49:40;16.40;99.90
6964;DHT22;3522;50.856;7.278;2022-08-02T01:55:12;16.30;99.90
6964;DHT22;3522;50.856;7.278;2022-08-02T01:57:39;16.20;99.90
6964;DHT22;3522;50.856;7.278;2022-08-02T02:00:07;16.20;99.90
6964;DHT22;3522;50.856;7.278;2022-08-02T02:02:36;16.10;99.90
6964;DHT22;3522;50.856;7.278;2022-08-02T02:05:05;16.10;99.90
6964;DHT22;3522;50.856;7.278;2022-08-02T02:07:32;16.10;99.90
6964;DHT22;3522;50.856;7.278;2022-08-02T02:10:00;16.10;99.90
6964;DHT22;3522;50.856;7.278;2022-08-02T02:12:27;16.10;99.90
6964;DHT22;3522;50.856;7.278;2022-08-02T02:14:56;16.10;99.90
6964;DHT22;3522;50.856;7.278;2022-08-02T02:17:24;16.10;99.90
6964;DHT22;3522;50.856;7.278;2022-08-02T02:19:53;16.10;99.90
6964;DHT22;3522;50.856;7.278;2022-08-02T02:22:20;16.10;99.90
6964;DHT22;3522;50.856;7.278;2022-08-02T02:24:47;16.10;99.90
6964;DHT22;3522;50.856;7.278;2022-08-02T02:27:13;16.20;99.90
6964;DHT22;3522;50.856;7.278;2022-08-02T02:29:42;16.20;99.90
6964;DHT22;3522;50.856;7.278;2022-08-02T02:32:09;16.20;99.90
6964;DHT22;3522;50.856;7.278;2022-08-02T02:34:38;16.20;99.90
6964;DHT22;3522;50.856;7.278;2022-08-02T02:37:11;16.20;99.90
6964;DHT22;3522;50.856;7.278;2022-08-02T02:39:38;16.10;99.90
6964;DHT22;3522;50.856;7.278;2022-08-02T02:42:07;16.10;99.90
6964;DHT22;3522;50.856;7.278;2022-08-02T02:44:34;16.10;99.90
6964;DHT22;3522;50.856;7.278;2022-08-02T02:47:01;16.10;99.90
6964;DHT22;3522;50.856;7.278;2022-08-02T02:49:29;16.00;99.90
6964;DHT22;3522;50.856;7.278;2022-08-02T02:51:56;15.90;99.90
6964;DHT22;3522;50.856;7.278;2022-08-02T02:54:25;15.90;99.90
6964;DHT22;3522;50.856;7.278;2022-08-02T02:56:52;15.90;99.90
6964;DHT22;3522;50.856;7.278;2022-08-02T02:59:19;15.90;99.90
6964;DHT22;3522;50.856;7.278;2022-08-02T03:01:46;15.90;99.90
6964;DHT22;3522;50.856;7.278;2022-08-02T03:04:13;15.90;99.90
6964;DHT22;3522;50.856;7.278;2022-08-02T03:06:40;15.90;99.90
6964;DHT22;3522;50.856;7.278;2022-08-02T03:09:07;15.90;99.90
6964;DHT22;3522;50.856;7.278;2022-08-02T03:11:36;15.90;99.90
6964;DHT22;3522;50.856;7.278;2022-08-02T03:14:03;15.90;99.90
6964;DHT22;3522;50.856;7.278;2022-08-02T03:16:30;15.90;99.90
6964;DHT22;3522;50.856;7.278;2022-08-02T03:18:57;15.90;99.90
6964;DHT22;3522;50.856;7.278;2022-08-02T03:21:26;15.80;99.90
6964;DHT22;3522;50.856;7.278;2022-08-02T03:23:53;15.70;99.90
6964;DHT22;3522;50.856;7.278;2022-08-02T03:26:20;15.80;99.90
6964;DHT22;3522;50.856;7.278;2022-08-02T03:28:48;15.70;99.90
6964;DHT22;3522;50.856;7.278;2022-08-02T03:31:14;15.70;99.90
6964;DHT22;3522;50.856;7.278;2022-08-02T03:33:41;15.70;99.90
6964;DHT22;3522;50.856;7.278;2022-08-02T03:36:09;15.70;99.90
6964;DHT22;3522;50.856;7.278;2022-08-02T03:38:36;15.80;99.90
6964;DHT22;3522;50.856;7.278;2022-08-02T03:41:03;15.70;99.90
6964;DHT22;3522;50.856;7.278;2022-08-02T03:43:30;15.70;99.90
6964;DHT22;3522;50.856;7.278;2022-08-02T03:45:58;15.70;99.90
6964;DHT22;3522;50.856;7.278;2022-08-02T03:48:27;15.80;99.90
6964;DHT22;3522;50.856;7.278;2022-08-02T03:50:55;15.80;99.90
6964;DHT22;3522;50.856;7.278;2022-08-02T03:53:21;15.90;99.90
6964;DHT22;3522;50.856;7.278;2022-08-02T03:55:48;15.80;99.90
6964;DHT22;3522;50.856;7.278;2022-08-02T03:58:15;15.80;99.90
6964;DHT22;3522;50.856;7.278;2022-08-02T04:00:42;15.80;99.90
6964;DHT22;3522;50.856;7.278;2022-08-02T04:03:10;15.80;99.90
6964;DHT22;3522;50.856;7.278;2022-08-02T04:05:36;15.70;99.90
6964;DHT22;3522;50.856;7.278;2022-08-02T04:08:03;15.60;99.90
6964;DHT22;3522;50.856;7.278;2022-08-02T04:10:30;15.60;99.90
6964;DHT22;3522;50.856;7.278;2022-08-02T04:13:16;15.50;99.90
6964;DHT22;3522;50.856;7.278;2022-08-02T04:15:43;15.50;99.90
6964;DHT22;3522;50.856;7.278;2022-08-02T04:18:12;15.40;99.90
6964;DHT22;3522;50.856;7.278;2022-08-02T04:20:39;15.40;99.90
6964;DHT22;3522;50.856;7.278;2022-08-02T04:23:07;15.40;99.90
6964;DHT22;3522;50.856;7.278;2022-08-02T04:25:35;15.40;99.90
6964;DHT22;3522;50.856;7.278;2022-08-02T04:28:02;15.50;99.90
6964;DHT22;3522;50.856;7.278;2022-08-02T04:30:28;15.50;99.90
6964;DHT22;3522;50.856;7.278;2022-08-02T04:32:55;15.50;99.90
6964;DHT22;3522;50.856;7.278;2022-08-02T04:35:23;15.50;99.90
6964;DHT22;3522;50.856;7.278;2022-08-02T04:37:50;15.50;99.90
6964;DHT22;3522;50.856;7.278;2022-08-02T04:40:17;15.50;99.90
6964;DHT22;3522;50.856;7.278;2022-08-02T04:42:44;15.50;99.90
6964;DHT22;3522;50.856;7.278;2022-08-02T04:45:10;15.50;99.90
6964;DHT22;3522;50.856;7.278;2022-08-02T04:47:37;15.50;99.90
6964;DHT22;3522;50.856;7.278;2022-08-02T04:50:04;15.60;99.90
6964;DHT22;3522;50.856;7.278;2022-08-02T04:52:32;15.60;99.90
6964;DHT22;3522;50.856;7.278;2022-08-02T04:54:59;15.70;99.90
6964;DHT22;3522;50.856;7.278;2022-08-02T04:57:25;15.80;99.90
6964;DHT22;3522;50.856;7.278;2022-08-02T05:00:10;15.80;99.90
6964;DHT22;3522;50.856;7.278;2022-08-02T05:02:36;15.80;99.90
6964;DHT22;3522;50.856;7.278;2022-08-02T05:05:03;15.80;99.90
6964;DHT22;3522;50.856;7.278;2022-08-02T05:07:30;15.80;99.90
6964;DHT22;3522;50.856;7.278;2022-08-02T05:09:58;15.90;99.90
6964;DHT22;3522;50.856;7.278;2022-08-02T05:12:25;15.90;99.90
6964;DHT22;3522;50.856;7.278;2022-08-02T05:14:51;15.90;99.90
6964;DHT22;3522;50.856;7.278;2022-08-02T05:17:18;15.90;99.90
6964;DHT22;3522;50.856;7.278;2022-08-02T05:19:44;15.90;99.90
6964;DHT22;3522;50.856;7.278;2022-08-02T05:22:11;15.90;99.90
6964;DHT22;3522;50.856;7.278;2022-08-02T05:24:37;16.00;99.90
6964;DHT22;3522;50.856;7.278;2022-08-02T05:27:05;16.00;99.90
6964;DHT22;3522;50.856;7.278;2022-08-02T05:29:32;16.00;99.90
6964;DHT22;3522;50.856;7.278;2022-08-02T05:31:58;16.00;99.90
6964;DHT22;3522;50.856;7.278;2022-08-02T05:34:25;16.10;99.90
6964;DHT22;3522;50.856;7.278;2022-08-02T05:36:52;16.20;99.90
6964;DHT22;3522;50.856;7.278;2022-08-02T05:39:18;16.20;99.90
6964;DHT22;3522;50.856;7.278;2022-08-02T05:41:45;16.30;99.90
6964;DHT22;3522;50.856;7.278;2022-08-02T05:44:13;16.40;99.90
6964;DHT22;3522;50.856;7.278;2022-08-02T05:46:39;16.60;99.90
6964;DHT22;3522;50.856;7.278;2022-08-02T05:49:06;16.70;99.90
6964;DHT22;3522;50.856;7.278;2022-08-02T05:51:35;16.90;99.90
6964;DHT22;3522;50.856;7.278;2022-08-02T05:54:04;17.10;99.90
6964;DHT22;3522;50.856;7.278;2022-08-02T05:56:33;17.40;99.90
6964;DHT22;3522;50.856;7.278;2022-08-02T05:59:02;17.60;99.90
6964;DHT22;3522;50.856;7.278;2022-08-02T06:01:32;18.00;99.90
6964;DHT22;3522;50.856;7.278;2022-08-02T06:03:58;18.30;99.90
6964;DHT22;3522;50.856;7.278;2022-08-02T06:06:25;18.50;99.90
6964;DHT22;3522;50.856;7.278;2022-08-02T06:08:53;18.80;99.90
6964;DHT22;3522;50.856;7.278;2022-08-02T06:11:22;19.00;99.90
6964;DHT22;3522;50.856;7.278;2022-08-02T06:13:49;19.20;99.90
6964;DHT22;3522;50.856;7.278;2022-08-02T06:16:16;19.40;99.90
6964;DHT22;3522;50.856;7.278;2022-08-02T06:18:45;19.60;99.90
6964;DHT22;3522;50.856;7.278;2022-08-02T06:21:13;19.80;99.90
6964;DHT22;3522;50.856;7.278;2022-08-02T06:23:41;20.10;99.90
6964;DHT22;3522;50.856;7.278;2022-08-02T06:26:08;20.30;99.90
6964;DHT22;3522;50.856;7.278;2022-08-02T06:28:36;20.40;99.90
6964;DHT22;3522;50.856;7.278;2022-08-02T06:31:03;20.70;99.90
6964;DHT22;3522;50.856;7.278;2022-08-02T06:33:31;21.00;99.90
6964;DHT22;3522;50.856;7.278;2022-08-02T06:36:00;21.30;99.90
6964;DHT22;3522;50.856;7.278;2022-08-02T06:38:31;21.40;99.90
6964;DHT22;3522;50.856;7.278;2022-08-02T06:41:00;21.70;99.90
6964;DHT22;3522;50.856;7.278;2022-08-02T06:43:29;22.00;99.90
6964;DHT22;3522;50.856;7.278;2022-08-02T06:45:56;22.20;99.90
6964;DHT22;3522;50.856;7.278;2022-08-02T06:48:23;22.40;99.90
6964;DHT22;3522;50.856;7.278;2022-08-02T06:50:49;22.50;99.90
6964;DHT22;3522;50.856;7.278;2022-08-02T06:53:17;22.80;99.90
6964;DHT22;3522;50.856;7.278;2022-08-02T06:55:44;23.00;99.90
6964;DHT22;3522;50.856;7.278;2022-08-02T06:58:10;23.20;99.90
6964;DHT22;3522;50.856;7.278;2022-08-02T07:00:37;23.60;99.90
6964;DHT22;3522;50.856;7.278;2022-08-02T07:03:04;23.70;99.90
6964;DHT22;3522;50.856;7.278;2022-08-02T07:05:30;23.90;99.90
6964;DHT22;3522;50.856;7.278;2022-08-02T07:07:57;24.10;99.90
6964;DHT22;3522;50.856;7.278;2022-08-02T07:10:25;24.30;99.90
6964;DHT22;3522;50.856;7.278;2022-08-02T07:12:51;24.60;99.90
6964;DHT22;3522;50.856;7.278;2022-08-02T07:15:18;24.90;99.90
6964;DHT22;3522;50.856;7.278;2022-08-02T07:17:45;24.70;99.90
6964;DHT22;3522;50.856;7.278;2022-08-02T07:20:11;24.90;99.90
6964;DHT22;3522;50.856;7.278;2022-08-02T07:22:39;25.00;99.90
6964;DHT22;3522;50.856;7.278;2022-08-02T07:25:06;25.10;99.90
6964;DHT22;3522;50.856;7.278;2022-08-02T07:27:34;25.30;99.90
6964;DHT22;3522;50.856;7.278;2022-08-02T07:30:01;25.40;99.90
6964;DHT22;3522;50.856;7.278;2022-08-02T07:32:29;25.70;99.90
6964;DHT22;3522;50.856;7.278;2022-08-02T07:34:56;25.90;99.90
6964;DHT22;3522;50.856;7.278;2022-08-02T07:37:24;26.00;99.90
6964;DHT22;3522;50.856;7.278;2022-08-02T07:39:50;26.00;99.90
6964;DHT22;3522;50.856;7.278;2022-08-02T07:42:17;26.10;99.90
6964;DHT22;3522;50.856;7.278;2022-08-02T07:44:45;26.40;99.90
6964;DHT22;3522;50.856;7.278;2022-08-02T07:47:11;26.70;99.90
6964;DHT22;3522;50.856;7.278;2022-08-02T07:49:38;26.80;99.90
6964;DHT22;3522;50.856;7.278;2022-08-02T07:52:04;26.80;99.90
6964;DHT22;3522;50.856;7.278;2022-08-02T07:54:31;26.90;99.90
6964;DHT22;3522;50.856;7.278;2022-08-02T07:56:57;27.10;99.90
6964;DHT22;3522;50.856;7.278;2022-08-02T07:59:25;27.40;99.90
6964;DHT22;3522;50.856;7.278;2022-08-02T08:01:54;27.60;99.90
6964;DHT22;3522;50.856;7.278;2022-08-02T08:04:20;28.00;99.80
6964;DHT22;3522;50.856;7.278;2022-08-02T08:06:47;28.20;98.00
6964;DHT22;3522;50.856;7.278;2022-08-02T08:09:16;28.40;97.90
6964;DHT22;3522;50.856;7.278;2022-08-02T08:11:43;28.60;96.90
6964;DHT22;3522;50.856;7.278;2022-08-02T08:14:09;28.60;96.20
6964;DHT22;3522;50.856;7.278;2022-08-02T08:16:36;28.60;95.20
6964;DHT22;3522;50.856;7.278;2022-08-02T08:19:04;28.50;95.10
6964;DHT22;3522;50.856;7.278;2022-08-02T08:21:30;28.10;95.90
6964;DHT22;3522;50.856;7.278;2022-08-02T08:23:59;28.20;96.40
6964;DHT22;3522;50.856;7.278;2022-08-02T08:26:25;28.30;93.80
6964;DHT22;3522;50.856;7.278;2022-08-02T08:28:52;27.60;94.50
6964;DHT22;3522;50.856;7.278;2022-08-02T08:31:18;27.80;95.10
6964;DHT22;3522;50.856;7.278;2022-08-02T08:33:45;27.80;94.90
6964;DHT22;3522;50.856;7.278;2022-08-02T08:36:12;28.10;94.80
6964;DHT22;3522;50.856;7.278;2022-08-02T08:38:40;28.10;94.10
6964;DHT22;3522;50.856;7.278;2022-08-02T08:41:07;28.50;93.20
6964;DHT22;3522;50.856;7.278;2022-08-02T08:43:34;28.60;91.90
6964;DHT22;3522;50.856;7.278;2022-08-02T08:46:00;29.00;90.80
6964;DHT22;3522;50.856;7.278;2022-08-02T08:48:27;28.90;91.20
6964;DHT22;3522;50.856;7.278;2022-08-02T08:50:55;28.80;90.50
6964;DHT22;3522;50.856;7.278;2022-08-02T08:53:23;28.80;90.80
6964;DHT22;3522;50.856;7.278;2022-08-02T08:55:51;28.80;90.20
6964;DHT22;3522;50.856;7.278;2022-08-02T08:58:18;28.70;90.60
6964;DHT22;3522;50.856;7.278;2022-08-02T09:00:45;28.80;90.50
6964;DHT22;3522;50.856;7.278;2022-08-02T09:03:12;28.80;90.80
6964;DHT22;3522;50.856;7.278;2022-08-02T09:05:39;29.00;90.90
6964;DHT22;3522;50.856;7.278;2022-08-02T09:08:06;29.50;90.60
6964;DHT22;3522;50.856;7.278;2022-08-02T09:10:35;29.80;89.50
6964;DHT22;3522;50.856;7.278;2022-08-02T09:13:09;29.70;87.30
6964;DHT22;3522;50.856;7.278;2022-08-02T09:15:37;29.00;89.90
6964;DHT22;3522;50.856;7.278;2022-08-02T09:18:04;29.20;90.40
6964;DHT22;3522;50.856;7.278;2022-08-02T09:20:31;29.30;89.60
6964;DHT22;3522;50.856;7.278;2022-08-02T09:23:05;29.60;89.00
6964;DHT22;3522;50.856;7.278;2022-08-02T09:25:32;29.80;88.40
6964;DHT22;3522;50.856;7.278;2022-08-02T09:28:00;29.40;87.70
6964;DHT22;3522;50.856;7.278;2022-08-02T09:30:27;29.30;87.80
6964;DHT22;3522;50.856;7.278;2022-08-02T09:32:54;29.30;87.60
6964;DHT22;3522;50.856;7.278;2022-08-02T09:35:30;29.00;87.50
6964;DHT22;3522;50.856;7.278;2022-08-02T09:38:03;29.30;87.40
6964;DHT22;3522;50.856;7.278;2022-08-02T09:40:33;29.50;87.50
6964;DHT22;3522;50.856;7.278;2022-08-02T09:43:01;29.30;87.20
6964;DHT22;3522;50.856;7.278;2022-08-02T09:45:31;29.30;88.40
6964;DHT22;3522;50.856;7.278;2022-08-02T09:47:59;29.70;86.30
6964;DHT22;3522;50.856;7.278;2022-08-02T09:50:26;29.70;86.10
6964;DHT22;3522;50.856;7.278;2022-08-02T09:52:53;29.50;84.70
6964;DHT22;3522;50.856;7.278;2022-08-02T09:55:20;29.70;85.00
6964;DHT22;3522;50.856;7.278;2022-08-02T09:57:47;29.80;83.40
6964;DHT22;3522;50.856;7.278;2022-08-02T10:00:15;29.70;84.30
6964;DHT22;3522;50.856;7.278;2022-08-02T10:02:53;30.00;83.40
6964;DHT22;3522;50.856;7.278;2022-08-02T10:05:30;30.40;84.20
6964;DHT22;3522;50.856;7.278;2022-08-02T10:08:10;29.80;83.70
6964;DHT22;3522;50.856;7.278;2022-08-02T10:10:36;29.40;86.50
6964;DHT22;3522;50.856;7.278;2022-08-02T10:13:03;28.90;90.30
6964;DHT22;3522;50.856;7.278;2022-08-02T10:15:31;28.50;88.40
6964;DHT22;3522;50.856;7.278;2022-08-02T10:17:58;28.60;90.20
6964;DHT22;3522;50.856;7.278;2022-08-02T10:20:24;28.70;90.20
6964;DHT22;3522;50.856;7.278;2022-08-02T10:22:51;28.60;89.40
6964;DHT22;3522;50.856;7.278;2022-08-02T10:25:19;28.80;92.10
6964;DHT22;3522;50.856;7.278;2022-08-02T10:27:45;29.10;88.10
6964;DHT22;3522;50.856;7.278;2022-08-02T10:30:13;29.50;90.80
6964;DHT22;3522;50.856;7.278;2022-08-02T10:32:42;29.90;87.00
6964;DHT22;3522;50.856;7.278;2022-08-02T10:35:09;30.00;85.30
6964;DHT22;3522;50.856;7.278;2022-08-02T10:37:37;30.10;83.70
6964;DHT22;3522;50.856;7.278;2022-08-02T10:40:05;30.50;83.40
6964;DHT22;3522;50.856;7.278;2022-08-02T10:42:47;30.60;82.30
6964;DHT22;3522;50.856;7.278;2022-08-02T10:45:15;30.50;81.20
6964;DHT22;3522;50.856;7.278;2022-08-02T10:47:56;30.00;80.60
6964;DHT22;3522;50.856;7.278;2022-08-02T10:53:20;29.30;84.70
6964;DHT22;3522;50.856;7.278;2022-08-02T10:55:48;29.20;84.70
6964;DHT22;3522;50.856;7.278;2022-08-02T10:58:15;29.00;81.20
6964;DHT22;3522;50.856;7.278;2022-08-02T11:00:41;28.90;84.50
6964;DHT22;3522;50.856;7.278;2022-08-02T11:03:15;28.80;87.30
6964;DHT22;3522;50.856;7.278;2022-08-02T11:05:59;28.60;85.20
6964;DHT22;3522;50.856;7.278;2022-08-02T11:08:27;28.90;85.50
6964;DHT22;3522;50.856;7.278;2022-08-02T11:10:56;29.20;83.40
6964;DHT22;3522;50.856;7.278;2022-08-02T11:13:23;29.60;80.20
6964;DHT22;3522;50.856;7.278;2022-08-02T11:15:51;29.90;80.10
6964;DHT22;3522;50.856;7.278;2022-08-02T11:18:20;30.00;79.40
6964;DHT22;3522;50.856;7.278;2022-08-02T11:20:46;30.30;78.40
6964;DHT22;3522;50.856;7.278;2022-08-02T11:23:34;30.50;81.80
6964;DHT22;3522;50.856;7.278;2022-08-02T11:26:01;30.50;82.50
6964;DHT22;3522;50.856;7.278;2022-08-02T11:28:30;30.30;79.10
6964;DHT22;3522;50.856;7.278;2022-08-02T11:30:57;30.30;79.40
6964;DHT22;3522;50.856;7.278;2022-08-02T11:33:30;30.50;75.20
6964;DHT22;3522;50.856;7.278;2022-08-02T11:35:59;30.00;72.60
6964;DHT22;3522;50.856;7.278;2022-08-02T11:38:26;30.10;74.60
6964;DHT22;3522;50.856;7.278;2022-08-02T11:40:53;30.30;76.50
6964;DHT22;3522;50.856;7.278;2022-08-02T11:43:20;30.50;73.70
6964;DHT22;3522;50.856;7.278;2022-08-02T11:45:47;30.50;72.70
6964;DHT22;3522;50.856;7.278;2022-08-02T11:48:28;30.90;72.20
6964;DHT22;3522;50.856;7.278;2022-08-02T11:51:03;30.80;71.10
6964;DHT22;3522;50.856;7.278;2022-08-02T11:53:29;30.70;72.90
6964;DHT22;3522;50.856;7.278;2022-08-02T11:55:59;30.40;73.10
6964;DHT22;3522;50.856;7.278;2022-08-02T11:58:25;30.60;75.00
6964;DHT22;3522;50.856;7.278;2022-08-02T12:00:52;30.50;69.10
6964;DHT22;3522;50.856;7.278;2022-08-02T12:03:18;30.30;69.00
6964;DHT22;3522;50.856;7.278;2022-08-02T12:05:47;30.50;70.30
6964;DHT22;3522;50.856;7.278;2022-08-02T12:08:15;31.00;70.00
6964;DHT22;3522;50.856;7.278;2022-08-02T12:10:45;31.40;72.10
6964;DHT22;3522;50.856;7.278;2022-08-02T12:13:12;31.60;65.50
6964;DHT22;3522;50.856;7.278;2022-08-02T12:15:39;31.80;62.40
6964;DHT22;3522;50.856;7.278;2022-08-02T12:18:09;31.90;62.50
6964;DHT22;3522;50.856;7.278;2022-08-02T12:20:53;31.80;62.20
6964;DHT22;3522;50.856;7.278;2022-08-02T12:23:21;31.60;62.50
6964;DHT22;3522;50.856;7.278;2022-08-02T12:25:58;31.20;61.80
6964;DHT22;3522;50.856;7.278;2022-08-02T12:28:24;31.20;62.80
6964;DHT22;3522;50.856;7.278;2022-08-02T12:30:52;30.70;63.30
6964;DHT22;3522;50.856;7.278;2022-08-02T12:33:19;30.90;64.00
6964;DHT22;3522;50.856;7.278;2022-08-02T12:35:46;30.60;63.90
6964;DHT22;3522;50.856;7.278;2022-08-02T12:38:13;30.30;64.30
6964;DHT22;3522;50.856;7.278;2022-08-02T12:40:41;30.40;64.30
6964;DHT22;3522;50.856;7.278;2022-08-02T12:43:14;30.60;68.00
6964;DHT22;3522;50.856;7.278;2022-08-02T12:45:45;30.80;66.30
6964;DHT22;3522;50.856;7.278;2022-08-02T12:48:12;30.90;66.80
6964;DHT22;3522;50.856;7.278;2022-08-02T12:50:39;30.90;63.80
6964;DHT22;3522;50.856;7.278;2022-08-02T12:53:06;30.80;68.10
6964;DHT22;3522;50.856;7.278;2022-08-02T12:55:32;30.80;63.70
6964;DHT22;3522;50.856;7.278;2022-08-02T12:58:01;30.70;64.50
6964;DHT22;3522;50.856;7.278;2022-08-02T13:00:29;30.50;66.60
6964;DHT22;3522;50.856;7.278;2022-08-02T13:02:56;30.40;70.60
6964;DHT22;3522;50.856;7.278;2022-08-02T13:05:24;30.50;69.50
6964;DHT22;3522;50.856;7.278;2022-08-02T13:07:51;30.50;69.00
6964;DHT22;3522;50.856;7.278;2022-08-02T13:10:18;30.30;66.80
6964;DHT22;3522;50.856;7.278;2022-08-02T13:12:44;30.20;66.50
6964;DHT22;3522;50.856;7.278;2022-08-02T13:15:12;30.10;64.30
6964;DHT22;3522;50.856;7.278;2022-08-02T13:17:39;30.30;64.80
6964;DHT22;3522;50.856;7.278;2022-08-02T13:20:05;30.40;70.00
6964;DHT22;3522;50.856;7.278;2022-08-02T13:22:32;30.50;65.80
6964;DHT22;3522;50.856;7.278;2022-08-02T13:24:59;30.50;67.10
6964;DHT22;3522;50.856;7.278;2022-08-02T13:27:26;30.60;69.40
6964;DHT22;3522;50.856;7.278;2022-08-02T13:29:53;30.60;71.80
6964;DHT22;3522;50.856;7.278;2022-08-02T13:32:21;30.60;71.50
6964;DHT22;3522;50.856;7.278;2022-08-02T13:34:48;30.70;69.90
6964;DHT22;3522;50.856;7.278;2022-08-02T13:37:15;30.80;70.00
6964;DHT22;3522;50.856;7.278;2022-08-02T13:39:42;30.80;69.10
6964;DHT22;3522;50.856;7.278;2022-08-02T13:42:08;30.80;63.50
6964;DHT22;3522;50.856;7.278;2022-08-02T13:44:35;30.60;66.30
6964;DHT22;3522;50.856;7.278;2022-08-02T13:47:01;30.50;65.40
6964;DHT22;3522;50.856;7.278;2022-08-02T13:49:29;30.70;70.30
6964;DHT22;3522;50.856;7.278;2022-08-02T13:51:56;30.80;68.90
6964;DHT22;3522;50.856;7.278;2022-08-02T13:54:22;30.90;70.60
6964;DHT22;3522;50.856;7.278;2022-08-02T13:56:49;31.10;72.00
6964;DHT22;3522;50.856;7.278;2022-08-02T13:59:15;31.20;70.50
6964;DHT22;3522;50.856;7.278;2022-08-02T14:01:42;31.00;69.60
6964;DHT22;3522;50.856;7.278;2022-08-02T14:04:10;31.10;67.50
6964;DHT22;3522;50.856;7.278;2022-08-02T14:06:37;31.10;63.80
6964;DHT22;3522;50.856;7.278;2022-08-02T14:09:04;31.20;66.00
6964;DHT22;3522;50.856;7.278;2022-08-02T14:11:31;31.10;68.50
6964;DHT22;3522;50.856;7.278;2022-08-02T14:13:57;30.90;69.00
6964;DHT22;3522;50.856;7.278;2022-08-02T14:16:24;30.70;70.70
6964;DHT22;3522;50.856;7.278;2022-08-02T14:18:50;30.70;69.80
6964;DHT22;3522;50.856;7.278;2022-08-02T14:21:17;30.60;72.20
6964;DHT22;3522;50.856;7.278;2022-08-02T14:23:45;30.60;73.30
6964;DHT22;3522;50.856;7.278;2022-08-02T14:26:12;30.80;71.70
6964;DHT22;3522;50.856;7.278;2022-08-02T14:28:38;31.00;66.90
6964;DHT22;3522;50.856;7.278;2022-08-02T14:31:05;31.10;70.30
6964;DHT22;3522;50.856;7.278;2022-08-02T14:33:32;31.10;65.20
6964;DHT22;3522;50.856;7.278;2022-08-02T14:35:58;31.20;63.70
6964;DHT22;3522;50.856;7.278;2022-08-02T14:38:25;31.10;64.40
6964;DHT22;3522;50.856;7.278;2022-08-02T14:40:53;31.00;64.30
6964;DHT22;3522;50.856;7.278;2022-08-02T14:43:19;31.10;66.80
6964;DHT22;3522;50.856;7.278;2022-08-02T14:46:00;31.20;64.70
6964;DHT22;3522;50.856;7.278;2022-08-02T14:48:27;31.40;69.80
6964;DHT22;3522;50.856;7.278;2022-08-02T14:50:53;31.60;67.10
6964;DHT22;3522;50.856;7.278;2022-08-02T14:53:20;32.00;67.50
6964;DHT22;3522;50.856;7.278;2022-08-02T14:55:47;32.00;63.90
6964;DHT22;3522;50.856;7.278;2022-08-02T14:58:15;32.00;64.20
6964;DHT22;3522;50.856;7.278;2022-08-02T15:00:42;32.00;61.80
6964;DHT22;3522;50.856;7.278;2022-08-02T15:03:08;32.00;65.80
6964;DHT22;3522;50.856;7.278;2022-08-02T15:05:35;32.10;67.40
6964;DHT22;3522;50.856;7.278;2022-08-02T15:08:02;32.10;60.60
6964;DHT22;3522;50.856;7.278;2022-08-02T15:10:28;32.10;61.50
6964;DHT22;3522;50.856;7.278;2022-08-02T15:12:55;32.00;65.10
6964;DHT22;3522;50.856;7.278;2022-08-02T15:15:23;32.00;66.90
6964;DHT22;3522;50.856;7.278;2022-08-02T15:17:50;31.80;67.50
6964;DHT22;3522;50.856;7.278;2022-08-02T15:20:16;31.60;67.60
6964;DHT22;3522;50.856;7.278;2022-08-02T15:22:43;31.60;64.50
6964;DHT22;3522;50.856;7.278;2022-08-02T15:25:09;31.60;63.40
6964;DHT22;3522;50.856;7.278;2022-08-02T15:27:36;31.70;66.30
6964;DHT22;3522;50.856;7.278;2022-08-02T15:30:03;31.60;67.10
6964;DHT22;3522;50.856;7.278;2022-08-02T15:32:31;31.50;64.70
6964;DHT22;3522;50.856;7.278;2022-08-02T15:34:57;31.40;67.90
6964;DHT22;3522;50.856;7.278;2022-08-02T15:37:24;31.30;67.60
6964;DHT22;3522;50.856;7.278;2022-08-02T15:39:50;31.30;68.20
6964;DHT22;3522;50.856;7.278;2022-08-02T15:42:17;31.10;67.60
6964;DHT22;3522;50.856;7.278;2022-08-02T15:44:43;31.10;69.60
6964;DHT22;3522;50.856;7.278;2022-08-02T15:47:10;31.10;69.40
6964;DHT22;3522;50.856;7.278;2022-08-02T15:49:38;31.00;65.50
6964;DHT22;3522;50.856;7.278;2022-08-02T15:52:05;31.00;68.10
6964;DHT22;3522;50.856;7.278;2022-08-02T15:54:31;31.00;65.00
6964;DHT22;3522;50.856;7.278;2022-08-02T15:56:58;31.10;64.10
6964;DHT22;3522;50.856;7.278;2022-08-02T15:59:24;30.90;65.30
6964;DHT22;3522;50.856;7.278;2022-08-02T16:01:51;30.80;65.20
6964;DHT22;3522;50.856;7.278;2022-08-02T16:04:17;30.70;66.20
6964;DHT22;3522;50.856;7.278;2022-08-02T16:06:45;30.70;69.20
6964;DHT22;3522;50.856;7.278;2022-08-02T16:09:12;30.70;69.80
6964;DHT22;3522;50.856;7.278;2022-08-02T16:11:38;30.60;72.20